sensor_id;sensor_type;location;lat;lon;timestamp;pressure;altitude;pressure_sealevel;temperature;humidity
1832;BME280;1680;48.106;11.708;2023-08-31T00:00:16;95010.72;;;13.62;100.00
1832;BME280;1680;48.106;11.708;2023-08-31T00:02:43;95013.56;;;13.56;100.00
1832;BME280;1680;48.106;11.708;2023-08-31T00:05:11;95019.66;;;13.61;100.00
1832;BME280;1680;48.106;11.708;2023-08-31T00:07:38;95022.78;;;13.54;100.00
1832;BME280;1680;48.106;11.708;2023-08-31T00:10:07;95025.31;;;13.44;100.00
1832;BME280;1680;48.106;11.708;2023-08-31T00:12:37;95023.25;;;13.46;100.00
1832;BME280;1680;48.106;11.708;2023-08-31T00:15:06;95019.78;;;13.40;100.00
1832;BME280;1680;48.106;11.708;2023-08-31T00:17:34;95024.25;;;13.40;100.00
1832;BME280;1680;48.106;11.708;2023-08-31T00:20:04;95013.13;;;13.33;100.00
1832;BME280;1680;48.106;11.708;2023-08-31T00:22:33;95018.31;;;13.23;100.00
1832;BME280;1680;48.106;11.708;2023-08-31T00:25:00;95019.59;;;13.20;100.00
1832;BME280;1680;48.106;11.708;2023-08-31T00:27:27;95022.50;;;13.19;100.00
1832;BME280;1680;48.106;11.708;2023-08-31T00:29:55;95019.25;;;13.12;100.00
1832;BME280;1680;48.106;11.708;2023-08-31T00:32:24;95021.88;;;13.07;100.00
1832;BME280;1680;48.106;11.708;2023-08-31T00:34:52;95017.63;;;13.06;100.00
1832;BME280;1680;48.106;11.708;2023-08-31T00:37:19;95024.50;;;13.07;100.00
1832;BME280;1680;48.106;11.708;2023-08-31T00:39:46;95028.13;;;13.01;100.00
1832;BME280;1680;48.106;11.708;2023-08-31T00:42:17;95031.75;;;12.95;100.00
1832;BME280;1680;48.106;11.708;2023-08-31T00:44:44;95018.53;;;12.90;100.00
1832;BME280;1680;48.106;11.708;2023-08-31T00:47:12;95037.97;;;12.89;100.00
1832;BME280;1680;48.106;11.708;2023-08-31T00:49:41;95038.22;;;12.87;100.00
1832;BME280;1680;48.106;11.708;2023-08-31T00:52:09;95034.78;;;12.87;100.00
1832;BME280;1680;48.106;11.708;2023-08-31T00:54:36;95007.47;;;12.66;100.00
1832;BME280;1680;48.106;11.708;2023-08-31T00:57:03;95042.59;;;12.77;100.00
1832;BME280;1680;48.106;11.708;2023-08-31T00:59:31;95036.28;;;12.78;100.00
1832;BME280;1680;48.106;11.708;2023-08-31T01:02:03;95000.94;;;12.48;100.00
1832;BME280;1680;48.106;11.708;2023-08-31T01:07:21;95029.91;;;12.74;100.00
1832;BME280;1680;48.106;11.708;2023-08-31T01:10:02;95026.19;;;12.70;100.00
1832;BME280;1680;48.106;11.708;2023-08-31T01:12:36;95025.63;;;12.68;100.00
1832;BME280;1680;48.106;11.708;2023-08-31T01:15:10;95017.66;;;12.58;100.00
1832;BME280;1680;48.106;11.708;2023-08-31T01:17:41;95026.88;;;12.60;100.00
1832;BME280;1680;48.106;11.708;2023-08-31T01:20:11;95031.91;;;12.62;100.00
1832;BME280;1680;48.106;11.708;2023-08-31T01:22:50;95015.75;;;12.54;100.00
1832;BME280;1680;48.106;11.708;2023-08-31T01:25:20;95034.81;;;12.65;100.00
1832;BME280;1680;48.106;11.708;2023-08-31T01:27:47;95024.50;;;12.59;100.00
1832;BME280;1680;48.106;11.708;2023-08-31T01:30:15;95033.50;;;12.63;100.00
1832;BME280;1680;48.106;11.708;2023-08-31T01:32:43;94983.78;;;12.19;100.00
1832;BME280;1680;48.106;11.708;2023-08-31T01:35:13;95030.31;;;12.61;100.00
1832;BME280;1680;48.106;11.708;2023-08-31T01:37:46;95030.78;;;12.58;100.00
1832;BME280;1680;48.106;11.708;2023-08-31T01:40:17;95028.91;;;12.54;100.00
1832;BME280;1680;48.106;11.708;2023-08-31T01:42:48;95037.09;;;12.57;100.00
1832;BME280;1680;48.106;11.708;2023-08-31T01:45:18;95026.38;;;12.63;100.00
1832;BME280;1680;48.106;11.708;2023-08-31T01:47:46;95029.56;;;12.65;100.00
1832;BME280;1680;48.106;11.708;2023-08-31T01:50:13;95033.31;;;12.69;100.00
1832;BME280;1680;48.106;11.708;2023-08-31T01:52:40;95031.56;;;12.80;100.00
1832;BME280;1680;48.106;11.708;2023-08-31T01:55:08;95035.72;;;12.76;100.00
1832;BME280;1680;48.106;11.708;2023-08-31T01:57:35;95036.09;;;12.84;100.00
1832;BME280;1680;48.106;11.708;2023-08-31T02:00:04;95045.16;;;12.93;100.00
1832;BME280;1680;48.106;11.708;2023-08-31T02:02:33;95039.19;;;13.03;100.00
1832;BME280;1680;48.106;11.708;2023-08-31T02:05:01;95041.56;;;13.04;100.00
1832;BME280;1680;48.106;11.708;2023-08-31T02:07:29;95006.34;;;12.84;100.00
1832;BME280;1680;48.106;11.708;2023-08-31T02:09:57;95048.75;;;13.14;100.00
1832;BME280;1680;48.106;11.708;2023-08-31T02:12:24;95041.69;;;13.14;100.00
1832;BME280;1680;48.106;11.708;2023-08-31T02:14:51;95045.94;;;13.20;100.00
1832;BME280;1680;48.106;11.708;2023-08-31T02:17:20;95018.19;;;13.08;100.00
1832;BME280;1680;48.106;11.708;2023-08-31T02:19:47;95049.59;;;13.19;100.00
1832;BME280;1680;48.106;11.708;2023-08-31T02:22:14;95047.03;;;13.24;100.00
1832;BME280;1680;48.106;11.708;2023-08-31T02:24:41;95056.06;;;13.33;100.00
1832;BME280;1680;48.106;11.708;2023-08-31T02:27:08;95054.78;;;13.36;100.00
1832;BME280;1680;48.106;11.708;2023-08-31T02:29:35;95056.38;;;13.37;100.00
1832;BME280;1680;48.106;11.708;2023-08-31T02:32:04;95072.41;;;13.35;100.00
1832;BME280;1680;48.106;11.708;2023-08-31T02:34:32;95082.69;;;13.37;100.00
1832;BME280;1680;48.106;11.708;2023-08-31T02:36:59;95092.47;;;13.41;100.00
1832;BME280;1680;48.106;11.708;2023-08-31T02:39:26;95093.03;;;13.43;100.00
1832;BME280;1680;48.106;11.708;2023-08-31T02:41:55;95094.13;;;13.47;100.00
1832;BME280;1680;48.106;11.708;2023-08-31T02:44:22;95111.56;;;13.53;100.00
1832;BME280;1680;48.106;11.708;2023-08-31T02:46:49;95115.00;;;13.54;100.00
1832;BME280;1680;48.106;11.708;2023-08-31T02:49:16;95112.91;;;13.56;100.00
1832;BME280;1680;48.106;11.708;2023-08-31T02:51:45;95126.16;;;13.65;100.00
1832;BME280;1680;48.106;11.708;2023-08-31T02:54:13;95092.19;;;13.38;100.00
1832;BME280;1680;48.106;11.708;2023-08-31T02:56:40;95121.75;;;13.45;100.00
1832;BME280;1680;48.106;11.708;2023-08-31T02:59:07;95123.63;;;13.49;100.00
1832;BME280;1680;48.106;11.708;2023-08-31T03:01:35;95120.97;;;13.44;100.00
1832;BME280;1680;48.106;11.708;2023-08-31T03:04:05;95110.44;;;13.44;100.00
1832;BME280;1680;48.106;11.708;2023-08-31T03:06:32;95120.41;;;13.42;100.00
1832;BME280;1680;48.106;11.708;2023-08-31T03:09:00;95120.34;;;13.37;100.00
1832;BME280;1680;48.106;11.708;2023-08-31T03:11:30;95122.63;;;13.29;100.00
1832;BME280;1680;48.106;11.708;2023-08-31T03:13:57;95091.44;;;13.16;100.00
1832;BME280;1680;48.106;11.708;2023-08-31T03:16:24;95107.44;;;13.36;100.00
1832;BME280;1680;48.106;11.708;2023-08-31T03:18:51;95101.06;;;13.32;100.00
1832;BME280;1680;48.106;11.708;2023-08-31T03:21:18;95113.81;;;13.40;100.00
1832;BME280;1680;48.106;11.708;2023-08-31T03:23:46;95116.47;;;13.45;100.00
1832;BME280;1680;48.106;11.708;2023-08-31T03:26:14;95105.72;;;13.46;100.00
1832;BME280;1680;48.106;11.708;2023-08-31T03:28:42;95116.97;;;13.42;100.00
1832;BME280;1680;48.106;11.708;2023-08-31T03:31:09;95102.19;;;13.36;100.00
1832;BME280;1680;48.106;11.708;2023-08-31T03:33:36;95120.25;;;13.54;100.00
1832;BME280;1680;48.106;11.708;2023-08-31T03:36:04;95121.53;;;13.51;100.00
1832;BME280;1680;48.106;11.708;2023-08-31T03:38:31;95119.38;;;13.43;100.00
1832;BME280;1680;48.106;11.708;2023-08-31T03:41:02;95092.59;;;13.25;100.00
1832;BME280;1680;48.106;11.708;2023-08-31T03:43:31;95111.22;;;13.45;100.00
1832;BME280;1680;48.106;11.708;2023-08-31T03:46:00;95114.34;;;13.42;100.00
1832;BME280;1680;48.106;11.708;2023-08-31T03:48:28;95128.88;;;13.44;100.00
1832;BME280;1680;48.106;11.708;2023-08-31T03:50:55;95129.91;;;13.43;100.00
1832;BME280;1680;48.106;11.708;2023-08-31T03:53:23;95135.41;;;13.42;100.00
1832;BME280;1680;48.106;11.708;2023-08-31T03:55:50;95140.94;;;13.40;100.00
1832;BME280;1680;48.106;11.708;2023-08-31T03:58:17;95134.81;;;13.35;100.00
1832;BME280;1680;48.106;11.708;2023-08-31T04:00:49;95141.06;;;13.29;100.00
1832;BME280;1680;48.106;11.708;2023-08-31T04:03:16;95148.97;;;13.29;100.00
1832;BME280;1680;48.106;11.708;2023-08-31T04:05:43;95146.91;;;13.31;100.00
1832;BME280;1680;48.106;11.708;2023-08-31T04:08:12;95130.72;;;13.17;100.00
1832;BME280;1680;48.106;11.708;2023-08-31T04:10:39;95150.34;;;13.31;100.00
1832;BME280;1680;48.106;11.708;2023-08-31T04:13:06;95146.91;;;13.31;100.00
1832;BME280;1680;48.106;11.708;2023-08-31T04:15:33;95151.66;;;13.34;100.00
1832;BME280;1680;48.106;11.708;2023-08-31T04:18:02;95162.50;;;13.37;100.00
1832;BME280;1680;48.106;11.708;2023-08-31T04:20:29;95161.25;;;13.45;100.00
1832;BME280;1680;48.106;11.708;2023-08-31T04:22:56;95166.53;;;13.45;100.00
1832;BME280;1680;48.106;11.708;2023-08-31T04:25:23;95165.88;;;13.33;100.00
1832;BME280;1680;48.106;11.708;2023-08-31T04:27:51;95167.47;;;13.34;100.00
1832;BME280;1680;48.106;11.708;2023-08-31T04:30:18;95169.63;;;13.37;100.00
1832;BME280;1680;48.106;11.708;2023-08-31T04:32:45;95168.81;;;13.36;100.00
1832;BME280;1680;48.106;11.708;2023-08-31T04:35:15;95155.28;;;13.28;100.00
1832;BME280;1680;48.106;11.708;2023-08-31T04:37:42;95184.66;;;13.41;100.00
1832;BME280;1680;48.106;11.708;2023-08-31T04:40:11;95173.03;;;13.37;100.00
1832;BME280;1680;48.106;11.708;2023-08-31T04:42:38;95183.91;;;13.46;100.00
1832;BME280;1680;48.106;11.708;2023-08-31T04:45:07;95187.03;;;13.43;100.00
1832;BME280;1680;48.106;11.708;2023-08-31T04:47:35;95198.19;;;13.50;100.00
1832;BME280;1680;48.106;11.708;2023-08-31T04:50:03;95201.59;;;13.45;100.00
1832;BME280;1680;48.106;11.708;2023-08-31T04:52:33;95179.50;;;13.25;100.00
1832;BME280;1680;48.106;11.708;2023-08-31T04:55:00;95207.16;;;13.49;100.00
1832;BME280;1680;48.106;11.708;2023-08-31T04:57:28;95159.88;;;13.11;100.00
1832;BME280;1680;48.106;11.708;2023-08-31T04:59:55;95209.22;;;13.47;100.00
1832;BME280;1680;48.106;11.708;2023-08-31T05:02:23;95189.66;;;13.38;100.00
1832;BME280;1680;48.106;11.708;2023-08-31T05:04:50;95202.34;;;13.41;100.00
1832;BME280;1680;48.106;11.708;2023-08-31T05:07:17;95208.13;;;13.43;100.00
1832;BME280;1680;48.106;11.708;2023-08-31T05:09:46;95183.72;;;13.26;100.00
1832;BME280;1680;48.106;11.708;2023-08-31T05:12:13;95211.31;;;13.45;100.00
1832;BME280;1680;48.106;11.708;2023-08-31T05:14:40;95215.81;;;13.49;100.00
1832;BME280;1680;48.106;11.708;2023-08-31T05:17:07;95187.56;;;13.40;100.00
1832;BME280;1680;48.106;11.708;2023-08-31T05:19:34;95225.69;;;13.58;100.00
1832;BME280;1680;48.106;11.708;2023-08-31T05:22:02;95210.22;;;13.67;100.00
1832;BME280;1680;48.106;11.708;2023-08-31T05:24:29;95186.56;;;13.46;100.00
1832;BME280;1680;48.106;11.708;2023-08-31T05:26:58;95211.13;;;13.77;100.00
1832;BME280;1680;48.106;11.708;2023-08-31T05:29:25;95225.91;;;13.78;100.00
1832;BME280;1680;48.106;11.708;2023-08-31T05:31:52;95220.69;;;13.83;100.00
1832;BME280;1680;48.106;11.708;2023-08-31T05:34:21;95232.81;;;13.84;100.00
1832;BME280;1680;48.106;11.708;2023-08-31T05:36:48;95243.66;;;13.88;100.00
1832;BME280;1680;48.106;11.708;2023-08-31T05:39:15;95231.81;;;13.90;100.00
1832;BME280;1680;48.106;11.708;2023-08-31T05:41:42;95218.28;;;13.82;100.00
1832;BME280;1680;48.106;11.708;2023-08-31T05:44:11;95231.31;;;13.93;100.00
1832;BME280;1680;48.106;11.708;2023-08-31T05:46:38;95248.03;;;14.04;100.00
1832;BME280;1680;48.106;11.708;2023-08-31T05:49:06;95257.22;;;14.01;100.00
1832;BME280;1680;48.106;11.708;2023-08-31T05:51:33;95254.63;;;14.06;100.00
1832;BME280;1680;48.106;11.708;2023-08-31T05:54:01;95253.66;;;14.12;100.00
1832;BME280;1680;48.106;11.708;2023-08-31T05:56:28;95255.06;;;14.25;100.00
1832;BME280;1680;48.106;11.708;2023-08-31T05:58:55;95253.47;;;14.24;100.00
1832;BME280;1680;48.106;11.708;2023-08-31T06:01:24;95262.16;;;14.19;100.00
1832;BME280;1680;48.106;11.708;2023-08-31T06:03:51;95265.94;;;14.28;100.00
1832;BME280;1680;48.106;11.708;2023-08-31T06:06:18;95267.81;;;14.33;100.00
1832;BME280;1680;48.106;11.708;2023-08-31T06:08:45;95260.13;;;14.26;100.00
1832;BME280;1680;48.106;11.708;2023-08-31T06:11:13;95262.78;;;14.31;100.00
1832;BME280;1680;48.106;11.708;2023-08-31T06:13:41;95272.34;;;14.37;100.00
1832;BME280;1680;48.106;11.708;2023-08-31T06:16:08;95272.34;;;14.37;100.00
1832;BME280;1680;48.106;11.708;2023-08-31T06:18:37;95268.09;;;14.36;100.00
1832;BME280;1680;48.106;11.708;2023-08-31T06:21:04;95274.53;;;14.45;100.00
1832;BME280;1680;48.106;11.708;2023-08-31T06:23:31;95281.47;;;14.56;100.00
1832;BME280;1680;48.106;11.708;2023-08-31T06:25:58;95278.28;;;14.54;100.00
1832;BME280;1680;48.106;11.708;2023-08-31T06:28:25;95285.94;;;14.55;100.00
1832;BME280;1680;48.106;11.708;2023-08-31T06:30:53;95282.03;;;14.58;100.00
1832;BME280;1680;48.106;11.708;2023-08-31T06:33:20;95293.34;;;14.58;100.00
1832;BME280;1680;48.106;11.708;2023-08-31T06:35:48;95249.16;;;14.39;100.00
1832;BME280;1680;48.106;11.708;2023-08-31T06:38:17;95293.63;;;14.62;100.00
1832;BME280;1680;48.106;11.708;2023-08-31T06:40:44;95290.81;;;14.73;100.00
1832;BME280;1680;48.106;11.708;2023-08-31T06:43:11;95290.88;;;14.83;100.00
1832;BME280;1680;48.106;11.708;2023-08-31T06:45:39;95293.84;;;14.92;100.00
1832;BME280;1680;48.106;11.708;2023-08-31T06:48:06;95290.66;;;14.85;100.00
1832;BME280;1680;48.106;11.708;2023-08-31T06:50:34;95294.38;;;14.89;100.00
1832;BME280;1680;48.106;11.708;2023-08-31T06:53:03;95297.63;;;15.06;100.00
1832;BME280;1680;48.106;11.708;2023-08-31T06:55:30;95299.81;;;15.14;100.00
1832;BME280;1680;48.106;11.708;2023-08-31T06:57:59;95284.97;;;15.03;100.00
1832;BME280;1680;48.106;11.708;2023-08-31T07:00:26;95304.28;;;15.13;100.00
1832;BME280;1680;48.106;11.708;2023-08-31T07:02:53;95301.97;;;15.22;100.00
1832;BME280;1680;48.106;11.708;2023-08-31T07:05:25;95309.09;;;15.21;100.00
1832;BME280;1680;48.106;11.708;2023-08-31T07:07:53;95305.88;;;15.14;100.00
1832;BME280;1680;48.106;11.708;2023-08-31T07:10:22;95311.44;;;15.13;100.00
1832;BME280;1680;48.106;11.708;2023-08-31T07:12:49;95309.56;;;15.08;100.00
1832;BME280;1680;48.106;11.708;2023-08-31T07:15:16;95307.16;;;15.07;100.00
1832;BME280;1680;48.106;11.708;2023-08-31T07:17:44;95311.63;;;15.01;100.00
1832;BME280;1680;48.106;11.708;2023-08-31T07:20:11;95317.75;;;15.12;100.00
1832;BME280;1680;48.106;11.708;2023-08-31T07:22:39;95297.13;;;15.04;100.00
1832;BME280;1680;48.106;11.708;2023-08-31T07:25:07;95322.53;;;15.15;100.00
1832;BME280;1680;48.106;11.708;2023-08-31T07:27:36;95315.13;;;15.12;100.00
1832;BME280;1680;48.106;11.708;2023-08-31T07:30:04;95330.78;;;15.23;100.00
1832;BME280;1680;48.106;11.708;2023-08-31T07:32:32;95326.06;;;15.25;100.00
1832;BME280;1680;48.106;11.708;2023-08-31T07:34:59;95335.06;;;15.29;100.00
1832;BME280;1680;48.106;11.708;2023-08-31T07:37:30;95340.44;;;15.44;100.00
1832;BME280;1680;48.106;11.708;2023-08-31T07:39:57;95333.41;;;15.69;100.00
1832;BME280;1680;48.106;11.708;2023-08-31T07:42:24;95345.88;;;15.79;100.00
1832;BME280;1680;48.106;11.708;2023-08-31T07:44:52;95347.44;;;15.75;100.00
1832;BME280;1680;48.106;11.708;2023-08-31T07:47:19;95360.44;;;15.76;100.00
1832;BME280;1680;48.106;11.708;2023-08-31T07:49:46;95359.38;;;15.82;100.00
1832;BME280;1680;48.106;11.708;2023-08-31T07:52:14;95363.88;;;15.82;100.00
1832;BME280;1680;48.106;11.708;2023-08-31T07:54:41;95342.47;;;15.78;100.00
1832;BME280;1680;48.106;11.708;2023-08-31T07:57:08;95370.03;;;15.92;100.00
1832;BME280;1680;48.106;11.708;2023-08-31T07:59:35;95365.53;;;15.98;100.00
1832;BME280;1680;48.106;11.708;2023-08-31T08:02:06;95352.03;;;15.99;100.00
1832;BME280;1680;48.106;11.708;2023-08-31T08:04:33;95357.13;;;16.16;100.00
1832;BME280;1680;48.106;11.708;2023-08-31T08:07:00;95355.53;;;16.15;100.00
1832;BME280;1680;48.106;11.708;2023-08-31T08:09:28;95360.59;;;16.21;100.00
1832;BME280;1680;48.106;11.708;2023-08-31T08:11:56;95348.66;;;16.19;100.00
1832;BME280;1680;48.106;11.708;2023-08-31T08:14:23;95355.34;;;16.36;100.00
1832;BME280;1680;48.106;11.708;2023-08-31T08:16:50;95333.06;;;16.27;100.00
1832;BME280;1680;48.106;11.708;2023-08-31T08:19:22;95332.84;;;16.49;100.00
1832;BME280;1680;48.106;11.708;2023-08-31T08:21:49;95350.09;;;16.66;100.00
1832;BME280;1680;48.106;11.708;2023-08-31T08:24:17;95360.69;;;16.81;100.00
1832;BME280;1680;48.106;11.708;2023-08-31T08:26:47;95367.06;;;17.05;100.00
1832;BME280;1680;48.106;11.708;2023-08-31T08:29:14;95373.94;;;17.16;100.00
1832;BME280;1680;48.106;11.708;2023-08-31T08:31:41;95387.47;;;17.19;100.00
1832;BME280;1680;48.106;11.708;2023-08-31T08:34:08;95394.63;;;17.14;100.00
1832;BME280;1680;48.106;11.708;2023-08-31T08:36:37;95383.47;;;16.77;100.00
1832;BME280;1680;48.106;11.708;2023-08-31T08:39:04;95402.56;;;16.69;100.00
1832;BME280;1680;48.106;11.708;2023-08-31T08:41:33;95386.13;;;16.87;100.00
1832;BME280;1680;48.106;11.708;2023-08-31T08:44:02;95382.94;;;16.80;100.00
1832;BME280;1680;48.106;11.708;2023-08-31T08:46:31;95383.75;;;16.90;100.00
1832;BME280;1680;48.106;11.708;2023-08-31T08:48:59;95361.50;;;16.96;100.00
1832;BME280;1680;48.106;11.708;2023-08-31T08:51:28;95373.44;;;17.14;100.00
1832;BME280;1680;48.106;11.708;2023-08-31T08:53:59;95393.56;;;17.40;100.00
1832;BME280;1680;48.106;11.708;2023-08-31T08:56:26;95391.69;;;17.25;100.00
1832;BME280;1680;48.106;11.708;2023-08-31T08:58:53;95392.47;;;17.16;100.00
1832;BME280;1680;48.106;11.708;2023-08-31T09:01:22;95385.31;;;17.11;100.00
1832;BME280;1680;48.106;11.708;2023-08-31T09:03:51;95384.28;;;17.22;100.00
1832;BME280;1680;48.106;11.708;2023-08-31T09:06:19;95356.72;;;16.78;100.00
1832;BME280;1680;48.106;11.708;2023-08-31T09:08:53;95390.38;;;17.03;100.00
1832;BME280;1680;48.106;11.708;2023-08-31T09:11:22;95398.88;;;17.30;100.00
1832;BME280;1680;48.106;11.708;2023-08-31T09:13:50;95396.69;;;17.61;100.00
1832;BME280;1680;48.106;11.708;2023-08-31T09:16:27;95385.34;;;17.36;100.00
1832;BME280;1680;48.106;11.708;2023-08-31T09:18:55;95380.06;;;17.31;100.00
1832;BME280;1680;48.106;11.708;2023-08-31T09:21:23;95415.56;;;17.45;100.00
1832;BME280;1680;48.106;11.708;2023-08-31T09:24:01;95406.25;;;17.48;100.00
1832;BME280;1680;48.106;11.708;2023-08-31T09:26:36;95395.69;;;17.28;100.00
1832;BME280;1680;48.106;11.708;2023-08-31T09:29:04;95411.31;;;17.44;100.00
1832;BME280;1680;48.106;11.708;2023-08-31T09:31:31;95410.25;;;17.40;100.00
1832;BME280;1680;48.106;11.708;2023-08-31T09:33:58;95415.28;;;17.27;100.00
1832;BME280;1680;48.106;11.708;2023-08-31T09:36:26;95404.16;;;17.15;100.00
1832;BME280;1680;48.106;11.708;2023-08-31T09:38:56;95396.69;;;16.72;100.00
1832;BME280;1680;48.106;11.708;2023-08-31T09:41:24;95412.91;;;17.00;100.00
1832;BME280;1680;48.106;11.708;2023-08-31T09:43:52;95420.56;;;17.17;100.00
1832;BME280;1680;48.106;11.708;2023-08-31T09:46:20;95416.06;;;17.27;100.00
1832;BME280;1680;48.106;11.708;2023-08-31T09:48:48;95404.69;;;17.27;100.00
1832;BME280;1680;48.106;11.708;2023-08-31T09:51:16;95413.69;;;17.26;100.00
1832;BME280;1680;48.106;11.708;2023-08-31T09:53:49;95411.31;;;17.39;100.00
1832;BME280;1680;48.106;11.708;2023-08-31T09:56:21;95409.72;;;17.43;100.00
1832;BME280;1680;48.106;11.708;2023-08-31T09:58:51;95405.72;;;17.51;100.00
1832;BME280;1680;48.106;11.708;2023-08-31T10:01:19;95403.06;;;17.65;100.00
1832;BME280;1680;48.106;11.708;2023-08-31T10:03:46;95398.66;;;18.09;100.00
1832;BME280;1680;48.106;11.708;2023-08-31T10:06:13;95400.75;;;18.27;100.00
1832;BME280;1680;48.106;11.708;2023-08-31T10:08:41;95359.88;;;18.18;100.00
1832;BME280;1680;48.106;11.708;2023-08-31T10:11:09;95403.38;;;18.75;100.00
1832;BME280;1680;48.106;11.708;2023-08-31T10:13:39;95400.94;;;18.84;100.00
1832;BME280;1680;48.106;11.708;2023-08-31T10:16:10;95403.34;;;18.85;100.00
1832;BME280;1680;48.106;11.708;2023-08-31T10:18:38;95394.97;;;18.63;100.00
1832;BME280;1680;48.106;11.708;2023-08-31T10:21:05;95386.69;;;18.27;100.00
1832;BME280;1680;48.106;11.708;2023-08-31T10:23:33;95391.22;;;18.11;100.00
1832;BME280;1680;48.106;11.708;2023-08-31T10:26:02;95384.63;;;18.09;100.00
1832;BME280;1680;48.106;11.708;2023-08-31T10:28:39;95400.59;;;17.89;100.00
1832;BME280;1680;48.106;11.708;2023-08-31T10:31:09;95388.69;;;17.86;100.00
1832;BME280;1680;48.106;11.708;2023-08-31T10:33:40;95394.78;;;17.87;100.00
1832;BME280;1680;48.106;11.708;2023-08-31T10:36:13;95388.44;;;17.68;100.00
1832;BME280;1680;48.106;11.708;2023-08-31T10:38:41;95394.03;;;17.61;100.00
1832;BME280;1680;48.106;11.708;2023-08-31T10:41:19;95399.59;;;17.70;100.00
1832;BME280;1680;48.106;11.708;2023-08-31T10:43:48;95376.00;;;17.68;100.00
1832;BME280;1680;48.106;11.708;2023-08-31T10:46:25;95403.88;;;17.66;100.00
1832;BME280;1680;48.106;11.708;2023-08-31T10:48:54;95370.75;;;17.39;100.00
1832;BME280;1680;48.106;11.708;2023-08-31T10:51:23;95396.19;;;17.50;100.00
1832;BME280;1680;48.106;11.708;2023-08-31T10:53:50;95396.97;;;17.65;100.00
1832;BME280;1680;48.106;11.708;2023-08-31T10:56:18;95376.03;;;17.49;100.00
1832;BME280;1680;48.106;11.708;2023-08-31T10:58:58;95391.41;;;17.52;100.00
1832;BME280;1680;48.106;11.708;2023-08-31T11:01:53;95390.88;;;17.54;100.00
1832;BME280;1680;48.106;11.708;2023-08-31T11:04:21;95383.22;;;17.33;100.00
1832;BME280;1680;48.106;11.708;2023-08-31T11:06:48;95389.03;;;17.25;100.00
1832;BME280;1680;48.106;11.708;2023-08-31T11:09:19;95374.75;;;17.21;100.00
1832;BME280;1680;48.106;11.708;2023-08-31T11:11:47;95386.13;;;17.27;100.00
1832;BME280;1680;48.106;11.708;2023-08-31T11:14:15;95390.91;;;17.15;100.00
1832;BME280;1680;48.106;11.708;2023-08-31T11:16:43;95396.44;;;17.08;100.00
1832;BME280;1680;48.106;11.708;2023-08-31T11:19:12;95407.59;;;17.00;100.00
1832;BME280;1680;48.106;11.708;2023-08-31T11:21:39;95401.50;;;17.10;100.00
1832;BME280;1680;48.106;11.708;2023-08-31T11:24:07;95401.22;;;17.11;100.00
1832;BME280;1680;48.106;11.708;2023-08-31T11:26:36;95397.78;;;17.16;100.00
1832;BME280;1680;48.106;11.708;2023-08-31T11:29:06;95397.28;;;17.14;100.00
1832;BME280;1680;48.106;11.708;2023-08-31T11:31:38;95398.84;;;17.05;100.00
1832;BME280;1680;48.106;11.708;2023-08-31T11:34:06;95391.69;;;16.95;100.00
1832;BME280;1680;48.106;11.708;2023-08-31T11:36:35;95392.22;;;17.02;100.00
1832;BME280;1680;48.106;11.708;2023-08-31T11:39:03;95392.47;;;16.86;100.00
1832;BME280;1680;48.106;11.708;2023-08-31T11:41:31;95406.00;;;16.84;100.00
1832;BME280;1680;48.106;11.708;2023-08-31T11:44:02;95407.84;;;16.69;100.00
1832;BME280;1680;48.106;11.708;2023-08-31T11:46:30;95414.19;;;16.73;100.00
1832;BME280;1680;48.106;11.708;2023-08-31T11:48:59;95412.09;;;16.70;100.00
1832;BME280;1680;48.106;11.708;2023-08-31T11:51:27;95424.25;;;16.86;100.00
1832;BME280;1680;48.106;11.708;2023-08-31T11:53:57;95424.31;;;17.31;100.00
1832;BME280;1680;48.106;11.708;2023-08-31T11:56:25;95412.63;;;17.52;100.00
1832;BME280;1680;48.106;11.708;2023-08-31T11:58:52;95424.78;;;17.77;100.00
1832;BME280;1680;48.106;11.708;2023-08-31T12:01:21;95427.34;;;18.07;100.00
1832;BME280;1680;48.106;11.708;2023-08-31T12:03:49;95429.66;;;18.29;100.00
1832;BME280;1680;48.106;11.708;2023-08-31T12:06:16;95415.00;;;18.46;100.00
1832;BME280;1680;48.106;11.708;2023-08-31T12:08:44;95412.25;;;18.61;100.00
1832;BME280;1680;48.106;11.708;2023-08-31T12:11:13;95416.91;;;18.84;100.00
1832;BME280;1680;48.106;11.708;2023-08-31T12:13:40;95416.47;;;19.05;100.00
1832;BME280;1680;48.106;11.708;2023-08-31T12:16:13;95415.31;;;19.21;97.16
1832;BME280;1680;48.106;11.708;2023-08-31T12:18:43;95426.84;;;19.07;97.68
1832;BME280;1680;48.106;11.708;2023-08-31T12:21:11;95416.53;;;18.57;99.74
1832;BME280;1680;48.106;11.708;2023-08-31T12:23:38;95340.44;;;17.69;96.30
1832;BME280;1680;48.106;11.708;2023-08-31T12:26:08;95408.25;;;18.05;100.00
1832;BME280;1680;48.106;11.708;2023-08-31T12:28:36;95423.59;;;18.28;99.98
1832;BME280;1680;48.106;11.708;2023-08-31T12:31:04;95426.16;;;18.43;98.26
1832;BME280;1680;48.106;11.708;2023-08-31T12:33:31;95418.03;;;18.73;100.00
1832;BME280;1680;48.106;11.708;2023-08-31T12:35:58;95425.78;;;19.08;99.51
1832;BME280;1680;48.106;11.708;2023-08-31T12:38:26;95415.16;;;19.03;93.97
1832;BME280;1680;48.106;11.708;2023-08-31T12:40:53;95410.53;;;19.18;93.58
1832;BME280;1680;48.106;11.708;2023-08-31T12:43:20;95422.25;;;19.51;100.00
1832;BME280;1680;48.106;11.708;2023-08-31T12:45:48;95430.44;;;19.26;95.58
1832;BME280;1680;48.106;11.708;2023-08-31T12:48:16;95429.19;;;19.47;91.36
1832;BME280;1680;48.106;11.708;2023-08-31T12:50:43;95429.94;;;19.52;87.33
1832;BME280;1680;48.106;11.708;2023-08-31T12:53:10;95426.88;;;19.68;89.40
1832;BME280;1680;48.106;11.708;2023-08-31T12:55:37;95436.88;;;19.81;87.69
1832;BME280;1680;48.106;11.708;2023-08-31T12:58:04;95442.03;;;19.68;86.49
1832;BME280;1680;48.106;11.708;2023-08-31T13:00:33;95437.06;;;19.28;85.95
1832;BME280;1680;48.106;11.708;2023-08-31T13:03:01;95439.38;;;19.01;86.51
1832;BME280;1680;48.106;11.708;2023-08-31T13:05:29;95418.13;;;19.01;86.58
1832;BME280;1680;48.106;11.708;2023-08-31T13:07:56;95430.91;;;19.33;90.49